Latest Weather Observations for Troughton Island

IDW60801

Issued at 1:32 pm WST Friday 4 September 2015 (issued every 30 minutes, with the page automatically refreshed every 10 minutes)

About weather observations | Map of weather stations | Latest weather observations for WA | Other Formats
Station Details ID: 001007 Name: TROUGHTON ISLAND Lat: -13.75 Lon: 126.15 Height: 6.0 m
Data from the previous 72 hours. | See also: Recent months at Troughton Island
Date/Time
WST
Temp
°C
App
Temp
°C
Dew
Point
Rel
Hum
%
Delta-T
°C
Wind Press
QNH
hPa
Press
MSL
hPa
Rain
since 9 am
mm
Dir
 
Spd
km/h
Gust
km/h
Spd
kts
Gust
kts
04/01:30pm 27.6 29.8 24.2 82 2.4 N 20 24 11 13 1014.3 1014.2 0.0
04/01:00pm 28.0 30.9 23.8 78 2.9 N 15 20 8 11 1014.7 1014.6 0.0
04/12:30pm 28.2 31.6 24.0 78 2.9 N 13 19 7 10 1015.1 1015.0 0.0
04/12:00pm 27.8 30.5 23.4 77 3.0 N 15 19 8 10 1015.6 1015.5 0.0
04/11:30am 29.1 32.0 23.1 70 4.1 NE 13 17 7 9 1016.0 1015.9 0.0
04/11:00am 29.2 32.5 23.9 73 3.7 NE 13 17 7 9 1016.3 1016.2 0.0
04/10:30am 29.5 32.5 22.7 67 4.6 SE 11 13 6 7 1016.5 1016.4 0.0
04/10:00am 28.6 31.9 22.6 70 4.1 SSE 9 13 5 7 1016.7 1016.6 0.0
04/09:30am 27.5 31.1 23.7 80 2.6 S 11 15 6 8 1017.0 1016.9 0.0
04/09:00am 28.2 31.8 24.4 80 2.6 SSW 13 15 7 8 1017.0 1016.9 0.0
04/08:30am 27.7 31.4 23.9 80 2.6 SW 11 15 6 8 1016.9 1016.8 0.0
04/08:00am 27.5 31.1 23.7 80 2.6 SW 11 13 6 7 1016.7 1016.6 0.0
04/07:30am 27.3 31.8 24.6 85 1.9 SW 9 11 5 6 1016.6 1016.5 0.0
04/07:00am 26.2 30.5 23.7 86 1.7 SW 7 9 4 5 1016.5 1016.4 0.0
04/06:30am 25.7 29.0 23.9 90 1.2 WSW 13 17 7 9 1016.1 1016.0 0.0
04/06:00am 25.2 27.6 23.6 91 1.1 SW 17 20 9 11 1015.7 1015.6 0.0
04/05:30am 25.1 27.8 23.5 91 1.1 SW 15 17 8 9 1015.5 1015.4 0.0
04/05:00am 25.2 27.5 23.4 90 1.2 SW 17 20 9 11 1015.2 1015.1 0.0
04/04:30am 25.3 27.4 23.7 91 1.1 SW 19 20 10 11 1014.9 1014.8 0.0
04/04:00am 25.2 27.2 23.6 91 1.1 SW 19 22 10 12 1014.6 1014.5 0.0
04/03:30am 25.2 27.3 23.8 92 1.0 WSW 19 20 10 11 1014.6 1014.5 0.0
04/03:00am 25.2 27.2 24.0 93 0.8 WSW 20 24 11 13 1014.7 1014.6 0.0
04/02:30am 25.2 27.4 24.2 94 0.7 WSW 20 24 11 13 1014.7 1014.6 0.0
04/02:00am 25.3 27.8 24.4 95 0.6 WSW 19 20 10 11 1014.9 1014.8 0.0
04/01:30am 25.2 27.4 24.2 94 0.7 WSW 20 22 11 12 1014.9 1014.8 0.0
04/01:00am 25.3 27.8 24.4 95 0.6 WSW 19 22 10 12 1015.2 1015.1 0.0
04/12:30am 25.3 27.2 24.4 95 0.6 WSW 22 28 12 15 1015.5 1015.4 0.0
04/12:00am 25.4 27.0 24.5 95 0.6 WSW 24 26 13 14 1015.8 1015.7 0.0
 
Date/Time
WST
Temp
°C
App
Temp
°C
Dew
Point
Rel
Hum
%
Delta-T
°C
Wind Press
QNH
hPa
Press
MSL
hPa
Rain
since 9 am
mm
Dir
 
Spd
km/h
Gust
km/h
Spd
kts
Gust
kts
03/11:30pm 25.4 27.7 24.5 95 0.6 SW 20 24 11 13 1016.3 1016.2 0.0
03/11:00pm 25.4 27.6 24.2 93 0.8 SW 20 22 11 12 1016.6 1016.5 0.0
03/10:30pm 25.4 27.4 24.0 92 1.0 WSW 20 22 11 12 1016.8 1016.7 0.0
03/10:00pm 25.4 27.3 23.8 91 1.1 WSW 20 24 11 13 1016.7 1016.6 0.0
03/09:30pm 25.3 27.2 23.7 91 1.1 WSW 20 24 11 13 1016.8 1016.7 0.0
03/09:00pm 25.3 27.1 23.5 90 1.2 WSW 20 22 11 12 1016.8 1016.7 0.0
03/08:30pm 25.5 27.4 23.7 90 1.2 WSW 20 24 11 13 1016.8 1016.7 0.0
03/08:00pm 25.6 27.4 23.6 89 1.4 WSW 20 24 11 13 1016.6 1016.5 0.0
03/07:30pm 25.6 28.0 23.6 89 1.4 W 17 20 9 11 1016.4 1016.3 0.0
03/07:00pm 25.7 27.6 23.4 87 1.6 W 19 22 10 12 1016.1 1016.0 0.0
03/06:30pm 25.9 28.2 23.4 86 1.7 W 17 20 9 11 1015.7 1015.6 0.0
03/06:00pm 25.9 28.1 23.2 85 1.8 WNW 17 20 9 11 1015.1 1015.0 0.0
03/05:30pm 26.2 28.2 22.9 82 2.2 WNW 17 19 9 10 1014.8 1014.7 0.0
03/05:00pm 27.1 29.1 22.9 78 2.9 WNW 17 20 9 11 1014.7 1014.6 0.0
03/04:30pm 27.9 30.6 22.8 74 3.5 WNW 13 15 7 8 1014.6 1014.5 0.0
03/04:00pm 28.2 31.1 23.1 74 3.5 WNW 13 15 7 8 1014.6 1014.5 0.0
03/03:30pm 28.5 30.4 22.0 68 4.4 NNW 15 19 8 10 1014.4 1014.3 0.0
03/03:00pm 28.8 30.1 22.3 68 4.4 NNW 19 22 10 12 1014.2 1014.1 0.0
03/02:30pm 28.7 29.7 21.7 66 4.7 N 19 24 10 13 1014.2 1014.1 0.0
03/02:00pm 29.0 29.3 21.5 64 5.0 NNW 22 26 12 14 1014.2 1014.1 0.0
03/01:30pm 29.8 30.5 22.3 64 5.1 NNW 22 28 12 15 1014.2 1014.1 0.0
03/01:00pm 30.6 31.9 22.7 62 5.4 NNW 20 26 11 14 1014.5 1014.4 0.0
03/12:30pm 29.7 30.4 21.6 61 5.4 NW 20 26 11 14 1014.6 1014.5 0.0
03/12:00pm 30.4 30.5 21.8 60 5.8 NNW 24 28 13 15 1014.9 1014.8 0.0
03/11:30am 28.5 29.3 22.5 70 4.1 N 22 28 12 15 1015.4 1015.3 0.0
03/11:00am 30.2 32.3 20.2 55 6.6 NW 9 15 5 8 1015.5 1015.4 0.0
03/10:30am 29.8 32.4 21.2 60 5.7 WSW 9 13 5 7 1015.6 1015.5 0.0
03/10:00am 30.2 32.9 21.3 59 6.0 SW 9 11 5 6 1015.9 1015.8 0.0
03/09:30am 29.2 31.1 20.6 59 5.7 SW 11 15 6 8 1016.2 1016.1 0.0
03/09:00am 29.1 30.6 21.3 62 5.2 SW 15 17 8 9 1016.3 1016.2 0.0
03/08:30am 28.0 28.4 19.8 61 5.3 SSW 17 19 9 10 1016.4 1016.3 0.0
03/08:00am 27.6 28.6 20.2 64 4.8 SSW 15 17 8 9 1016.4 1016.3 0.0
03/07:30am 26.8 27.4 20.2 67 4.3 SSW 17 19 9 10 1016.3 1016.2 0.0
03/07:00am 26.3 27.0 19.7 67 4.3 S 15 17 8 9 1016.2 1016.1 0.0
03/06:30am 25.7 25.5 19.8 70 3.8 SSW 20 26 11 14 1016.0 1015.9 0.0
03/06:00am 25.3 24.8 19.9 72 3.5 SSW 22 26 12 14 1015.7 1015.6 0.0
03/05:30am 25.0 24.5 20.0 74 3.2 SW 22 26 12 14 1015.4 1015.3 0.0
03/05:00am 25.1 24.6 20.8 77 2.8 SW 24 30 13 16 1015.1 1015.0 0.0
03/04:30am 25.1 24.3 20.8 77 2.8 SW 26 30 14 16 1014.8 1014.7 0.0
03/04:00am 25.3 23.7 20.1 73 3.4 SW 28 33 15 18 1014.6 1014.5 0.0
03/03:30am 25.4 24.0 20.4 74 3.3 SW 28 35 15 19 1014.6 1014.5 0.0
03/03:00am 25.4 23.2 20.4 74 3.3 SW 32 37 17 20 1014.5 1014.4 0.0
03/02:30am 25.4 24.7 21.1 77 2.8 SW 26 33 14 18 1014.8 1014.7 0.0
03/02:00am 25.4 24.3 21.1 77 2.8 SW 28 33 15 18 1014.9 1014.8 0.0
03/01:30am 25.4 24.5 21.5 79 2.6 SW 28 33 15 18 1015.2 1015.1 0.0
03/01:00am 25.3 24.6 21.8 81 2.3 SW 28 32 15 17 1015.4 1015.3 0.0
03/12:30am 25.4 24.9 21.5 79 2.6 WSW 26 30 14 16 1015.6 1015.5 0.0
03/12:00am 25.6 25.8 22.1 81 2.3 WSW 24 28 13 15 1016.0 1015.9 0.0
 
Date/Time
WST
Temp
°C
App
Temp
°C
Dew
Point
Rel
Hum
%
Delta-T
°C
Wind Press
QNH
hPa
Press
MSL
hPa
Rain
since 9 am
mm
Dir
 
Spd
km/h
Gust
km/h
Spd
kts
Gust
kts
02/11:30pm 25.5 25.5 21.6 79 2.6 WSW 24 30 13 16 1016.4 1016.3 0.0
02/11:00pm 25.6 26.3 22.3 82 2.2 WSW 22 26 12 14 1016.6 1016.5 0.0
02/10:30pm 25.5 26.0 22.0 81 2.3 WSW 22 26 12 14 1016.5 1016.4 0.0
02/10:00pm 25.2 26.2 22.1 83 2.1 WSW 20 24 11 13 1016.5 1016.4 0.0
02/09:30pm 25.3 25.4 21.2 78 2.7 WSW 22 28 12 15 1016.4 1016.3 0.0
02/09:00pm 25.2 25.6 21.7 81 2.3 WSW 22 26 12 14 1016.3 1016.2 0.0
02/08:30pm 25.3 25.1 21.2 78 2.7 WSW 24 28 13 15 1016.1 1016.0 0.0
02/08:00pm 25.5 25.1 21.0 76 3.0 WSW 24 28 13 15 1015.9 1015.8 0.0
02/07:30pm 25.5 25.6 21.8 80 2.5 W 24 30 13 16 1015.5 1015.4 0.0
02/07:00pm 25.6 24.9 21.1 76 3.0 W 26 28 14 15 1015.1 1015.0 0.0
02/06:30pm 25.6 25.0 21.3 77 2.8 W 26 32 14 17 1014.6 1014.5 0.0
02/06:00pm 25.8 24.8 21.2 76 3.0 W 28 30 15 16 1014.3 1014.2 0.0
02/05:30pm 26.0 25.3 21.0 74 3.3 W 26 30 14 16 1014.2 1014.1 0.0
02/05:00pm 26.7 26.3 21.7 74 3.3 W 26 30 14 16 1013.8 1013.7 0.0
02/04:30pm 27.2 27.0 21.2 69 4.0 W 24 28 13 15 1013.7 1013.6 0.0
02/04:00pm 27.5 28.4 22.7 75 3.3 W 22 26 12 14 1013.7 1013.6 0.0
02/03:30pm 28.0 28.7 22.2 70 3.9 W 22 26 12 14 1013.5 1013.4 0.0
02/03:00pm 28.4 28.7 20.7 63 5.1 W 20 24 11 13 1013.5 1013.4 0.0
02/02:30pm 28.6 29.0 20.6 62 5.3 W 19 24 10 13 1013.5 1013.4 0.0
02/02:00pm 28.7 29.2 21.2 64 5.0 W 20 22 11 12 1013.7 1013.6 0.0
02/01:30pm 28.5 29.1 21.0 64 5.0 W 19 22 10 12 1014.0 1013.9 0.0
02/01:00pm 28.5 29.4 22.0 68 4.4 W 20 24 11 13 1014.1 1014.0 0.0
02/12:30pm 28.7 29.7 21.7 66 4.7 W 19 24 10 13 1014.4 1014.3 0.0
02/12:00pm 28.7 29.2 22.0 67 4.5 WSW 22 26 12 14 1014.8 1014.7 0.0
02/11:30am 28.7 28.6 21.5 65 4.8 WSW 24 28 13 15 1015.2 1015.1 0.0
02/11:00am 28.5 28.3 20.5 62 5.3 WSW 22 24 12 13 1015.7 1015.6 0.0
02/10:30am 28.3 28.4 20.3 62 5.3 WSW 20 24 11 13 1016.2 1016.1 0.0
02/10:00am 28.4 29.3 20.9 64 5.0 SW 17 22 9 12 1016.6 1016.5 0.0
02/09:30am 27.8 28.8 21.1 67 4.4 SW 17 20 9 11 1016.9 1016.8 0.0
02/09:00am 27.6 28.7 21.2 68 4.2 SW 17 22 9 12 1017.0 1016.9 0.0
02/08:30am 27.3 28.3 21.8 72 3.7 SSW 19 24 10 13 1017.0 1016.9 0.0
02/08:00am 26.6 27.4 21.8 75 3.2 SW 20 24 11 13 1016.8 1016.7 0.0
02/07:30am 26.1 26.5 21.7 77 2.9 SW 22 26 12 14 1016.6 1016.5 0.0
02/07:00am 25.7 26.5 22.4 82 2.2 SW 22 28 12 15 1016.2 1016.1 0.0
02/06:30am 25.0 26.0 22.1 84 1.9 SW 20 26 11 14 1015.9 1015.8 0.0
02/06:00am 24.7 25.4 22.2 86 1.7 SW 22 30 12 16 1015.5 1015.4 0.0
02/05:30am 24.7 24.6 22.2 86 1.7 SW 26 32 14 17 1015.1 1015.0 0.0
02/05:00am 24.6 24.7 21.9 85 1.8 SW 24 30 13 16 1014.7 1014.6 0.0
02/04:30am 24.9 24.8 22.2 85 1.8 SW 26 32 14 17 1014.5 1014.4 0.0
02/04:00am 24.8 24.8 21.7 83 2.1 SW 24 32 13 17 1014.3 1014.2 0.0
02/03:30am 25.0 24.8 22.1 84 1.9 SW 26 32 14 17 1014.4 1014.3 0.0
02/03:00am 24.9 24.9 21.6 82 2.2 SW 24 30 13 16 1014.5 1014.4 0.0
02/02:30am 25.0 24.4 21.3 80 2.4 SW 26 32 14 17 1014.4 1014.3 0.0
02/02:00am 25.1 24.4 21.8 82 2.2 SW 28 32 15 17 1014.5 1014.4 0.0
02/01:30am 25.1 24.9 22.0 83 2.1 WSW 26 32 14 17 1014.4 1014.3 0.0
02/01:00am 25.0 24.7 21.9 83 2.1 WSW 26 32 14 17 1014.5 1014.4 0.0
02/12:30am 25.1 25.2 21.8 82 2.2 WSW 24 30 13 16 1014.7 1014.6 0.0
02/12:00am 25.2 24.9 21.9 82 2.2 WSW 26 32 14 17 1015.0 1014.9 0.0
 
Date/Time
WST
Temp
°C
App
Temp
°C
Dew
Point
Rel
Hum
%
Delta-T
°C
Wind Press
QNH
hPa
Press
MSL
hPa
Rain
since 9 am
mm
Dir
 
Spd
km/h
Gust
km/h
Spd
kts
Gust
kts
01/11:30pm 25.3 24.9 21.6 80 2.5 WSW 26 30 14 16 1015.2 1015.1 0.0
01/11:00pm 25.4 25.1 21.9 81 2.3 WSW 26 30 14 16 1015.4 1015.3 0.0
01/10:30pm 25.4 25.0 21.7 80 2.5 WSW 26 28 14 15 1015.3 1015.2 0.0
01/10:00pm 25.5 25.7 22.0 81 2.3 WSW 24 28 13 15 1015.5 1015.4 0.0
01/09:30pm 25.3 25.3 21.6 80 2.5 WSW 24 28 13 15 1015.4 1015.3 0.0
01/09:00pm 25.1 25.2 21.2 79 2.6 WSW 22 26 12 14 1015.3 1015.2 0.0
01/08:30pm 25.1 25.2 21.2 79 2.6 WSW 22 26 12 14 1015.2 1015.1 0.0
01/08:00pm 25.3 25.3 21.0 77 2.8 WSW 22 26 12 14 1015.1 1015.0 0.0
01/07:30pm 25.3 25.3 21.0 77 2.8 WSW 22 26 12 14 1014.8 1014.7 0.0
01/07:00pm 25.4 25.0 20.9 76 3.0 WSW 24 28 13 15 1014.4 1014.3 0.0
01/06:30pm 25.5 25.1 21.0 76 3.0 W 24 28 13 15 1013.9 1013.8 0.0
01/06:00pm 25.7 25.3 20.9 75 3.2 WSW 24 28 13 15 1013.5 1013.4 0.0
01/05:30pm 25.9 25.6 21.1 75 3.2 W 24 30 13 16 1013.3 1013.2 0.0
01/05:00pm 26.6 25.9 21.1 72 3.6 W 26 32 14 17 1013.1 1013.0 0.0
01/04:30pm 27.2 27.2 21.7 72 3.7 W 24 30 13 16 1013.0 1012.9 0.0
01/04:00pm 27.6 27.1 21.4 69 4.1 W 26 30 14 16 1012.9 1012.8 0.0
01/03:30pm 27.8 27.5 21.1 67 4.4 W 24 30 13 16 1012.8 1012.7 0.0
01/03:00pm 28.5 27.6 21.5 66 4.7 W 28 32 15 17 1012.9 1012.8 0.0
01/02:30pm 28.4 27.6 21.7 67 4.5 W 28 32 15 17 1013.0 1012.9 0.0
01/02:00pm 28.5 27.6 21.5 66 4.7 W 28 32 15 17 1013.3 1013.2 0.0

Other Formats:

Comma delimited format used in spreadsheet applications
http://www.bom.gov.au/fwo/IDW60801/IDW60801.94102.axf

JavaScript Object Notation format (JSON) in row-major order
http://www.bom.gov.au/fwo/IDW60801/IDW60801.94102.json